Time;durP1;ratioP1;P1;durP2;ratioP2;P2;SDS_P1;SDS_P2;PMS_P1;PMS_P2;Temp;Humidity;BMP_temperature;BMP_pressure;BME280_temperature;BME280_humidity;BME280_pressure;Samples;Min_cycle;Max_cycle;Signal;HPM_P1;HPM_P2
2023/09/13 00:00:17;;;;;;;14.55;13.05;;;19.80;99.90;;;;;;4991848;28;20508;-52
2023/09/13 00:02:43;;;;;;;;;;;19.80;99.90;;;;;;4990408;28;20035;-55
2023/09/13 00:05:09;;;;;;;18.95;13.95;;;19.80;99.90;;;;;;4991984;28;19956;-56
2023/09/13 00:07:35;;;;;;;;;;;19.80;99.90;;;;;;4991937;28;20501;-54
2023/09/13 00:10:01;;;;;;;17.60;13.52;;;19.80;99.90;;;;;;4991305;28;19929;-53
2023/09/13 00:12:26;;;;;;;;;;;19.70;99.90;;;;;;4992300;28;20065;-51
2023/09/13 00:14:52;;;;;;;12.88;11.35;;;19.80;99.90;;;;;;4991379;28;19918;-56
2023/09/13 00:17:20;;;;;;;;;;;19.80;99.90;;;;;;4992612;28;20060;-55
2023/09/13 00:19:46;;;;;;;13.07;11.77;;;19.70;99.90;;;;;;4989100;28;19929;-55
2023/09/13 00:22:12;;;;;;;15.25;10.95;;;19.70;99.90;;;;;;4991740;28;20473;-55
2023/09/13 00:24:38;;;;;;;12.13;10.73;;;19.70;99.90;;;;;;4991213;28;20038;-56
2023/09/13 00:27:04;;;;;;;14.45;11.55;;;19.70;99.90;;;;;;4991601;28;20038;-55
2023/09/13 00:29:32;;;;;;;14.95;12.27;;;19.70;99.90;;;;;;4990359;28;20061;-55
2023/09/13 00:31:58;;;;;;;15.43;12.65;;;19.70;99.90;;;;;;4990059;28;20042;-53
2023/09/13 00:34:24;;;;;;;18.13;13.73;;;19.70;99.90;;;;;;4991785;28;20038;-51
2023/09/13 00:36:49;;;;;;;;;;;19.70;99.90;;;;;;4991952;28;20137;-51
2023/09/13 00:39:15;;;;;;;21.52;14.27;;;19.70;99.90;;;;;;4991426;28;19929;-55
2023/09/13 00:41:40;;;;;;;;;;;19.70;99.90;;;;;;4991485;28;20047;-52
2023/09/13 00:44:06;;;;;;;21.35;15.88;;;19.70;99.90;;;;;;4990774;28;19918;-53
2023/09/13 00:46:32;;;;;;;;;;;19.70;99.90;;;;;;4991726;28;20405;-54
2023/09/13 00:48:57;;;;;;;21.02;16.15;;;19.70;99.90;;;;;;4991260;28;19917;-55
2023/09/13 00:51:24;;;;;;;23.30;16.65;;;19.70;99.90;;;;;;4990696;28;20041;-55
2023/09/13 00:53:49;;;;;;;27.40;17.05;;;19.70;99.90;;;;;;4990777;28;20049;-55
2023/09/13 00:56:17;;;;;;;18.75;15.65;;;19.70;99.90;;;;;;4990938;28;20448;-51
2023/09/13 00:58:43;;;;;;;24.08;16.83;;;19.60;99.90;;;;;;4990090;28;20042;-56
2023/09/13 01:01:09;;;;;;;21.08;15.02;;;19.70;99.90;;;;;;4991351;28;20524;-54
2023/09/13 01:03:35;;;;;;;24.48;15.45;;;19.70;99.90;;;;;;4990569;28;20034;-53
2023/09/13 01:06:01;;;;;;;19.63;14.32;;;19.60;99.90;;;;;;4989878;28;20128;-53
2023/09/13 01:08:26;;;;;;;;;;;19.60;99.90;;;;;;4991637;28;20050;-54
2023/09/13 01:10:52;;;;;;;27.48;15.00;;;19.60;99.90;;;;;;4990484;28;19992;-50
2023/09/13 01:13:19;;;;;;;;;;;19.60;99.90;;;;;;4991132;28;20836;-50
2023/09/13 01:16:15;;;;;;;19.42;14.40;;;19.60;99.90;;;;;;4990146;28;19925;-48
2023/09/13 01:18:58;;;;;;;16.88;14.35;;;19.60;99.90;;;;;;4989777;28;20046;-53
2023/09/13 01:21:46;;;;;;;23.38;13.93;;;19.60;99.90;;;;;;4989714;28;20457;-54
2023/09/13 01:24:33;;;;;;;17.63;13.38;;;19.60;99.90;;;;;;4989337;28;20077;-52
2023/09/13 01:26:59;;;;;;;15.90;13.25;;;19.60;99.90;;;;;;4989839;28;20038;-53
2023/09/13 01:29:26;;;;;;;20.20;13.90;;;19.60;99.90;;;;;;4988600;28;20157;-56
2023/09/13 01:31:52;;;;;;;19.10;13.88;;;19.60;99.90;;;;;;4989847;28;20057;-53
2023/09/13 01:34:18;;;;;;;21.85;14.25;;;19.60;99.90;;;;;;4990179;28;21308;-55
2023/09/13 01:36:44;;;;;;;25.85;13.80;;;19.60;99.90;;;;;;4989794;28;20170;-53
2023/09/13 01:39:09;;;;;;;;;;;19.60;99.90;;;;;;4989868;28;20076;-53
2023/09/13 01:41:45;;;;;;;19.30;13.27;;;19.60;99.90;;;;;;4989931;28;19922;-55
2023/09/13 01:44:11;;;;;;;21.75;13.68;;;19.60;99.90;;;;;;4990115;28;20038;-53
2023/09/13 01:46:42;;;;;;;;;;;19.60;99.90;;;;;;4990037;28;20030;-55
2023/09/13 01:49:09;;;;;;;25.42;15.02;;;19.60;99.90;;;;;;4989545;28;19918;-51
2023/09/13 01:51:35;;;;;;;22.92;12.77;;;19.50;99.90;;;;;;4989329;28;20117;-53
2023/09/13 01:54:00;;;;;;;21.45;12.95;;;19.60;99.90;;;;;;4989817;28;20049;-53
2023/09/13 01:56:26;;;;;;;19.50;12.05;;;19.60;99.90;;;;;;4989495;28;20042;-52
2023/09/13 01:58:52;;;;;;;17.52;12.77;;;19.50;99.90;;;;;;4989443;28;20066;-54
2023/09/13 02:01:17;;;;;;;18.15;12.77;;;19.50;99.90;;;;;;4988068;28;20030;-55
2023/09/13 02:03:44;;;;;;;22.50;12.25;;;19.50;99.90;;;;;;4989345;28;20183;-54
2023/09/13 02:06:10;;;;;;;19.98;11.07;;;19.50;99.90;;;;;;4984648;28;20386;-54
2023/09/13 02:08:37;;;;;;;;;;;19.50;99.90;;;;;;4988287;28;20042;-55
2023/09/13 02:11:04;;;;;;;18.52;9.52;;;19.40;99.90;;;;;;4990107;28;19945;-55
2023/09/13 02:13:29;;;;;;;21.38;8.68;;;19.40;99.90;;;;;;4988940;28;20085;-54
2023/09/13 02:15:55;;;;;;;23.48;9.85;;;19.40;99.90;;;;;;4988408;28;20081;-54
2023/09/13 02:18:20;;;;;;;;;;;19.40;99.90;;;;;;4988894;28;20203;-52
2023/09/13 02:20:46;;;;;;;18.55;7.72;;;19.40;99.90;;;;;;4989488;28;19924;-55
2023/09/13 02:23:11;;;;;;;;;;;19.40;99.90;;;;;;4989763;28;20030;-50
2023/09/13 02:25:38;;;;;;;17.83;7.53;;;19.30;99.90;;;;;;4988887;28;20000;-52
2023/09/13 02:28:04;;;;;;;17.95;7.63;;;19.30;99.90;;;;;;4986533;28;20117;-51
2023/09/13 02:30:31;;;;;;;18.08;7.03;;;19.30;99.90;;;;;;4988989;28;20046;-52
2023/09/13 02:32:56;;;;;;;18.33;7.55;;;19.20;99.90;;;;;;4988898;28;20070;-53
2023/09/13 02:35:22;;;;;;;13.75;7.15;;;19.20;99.90;;;;;;4989155;28;20084;-56
2023/09/13 02:37:48;;;;;;;;;;;19.20;99.90;;;;;;4989636;28;20038;-51
2023/09/13 02:40:13;;;;;;;15.43;5.95;;;19.20;99.90;;;;;;4988946;28;19918;-55
2023/09/13 02:42:39;;;;;;;;;;;19.20;99.90;;;;;;4988465;28;20129;-55
2023/09/13 02:45:05;;;;;;;17.70;5.80;;;19.10;99.90;;;;;;4989142;28;19925;-53
2023/09/13 02:47:31;;;;;;;11.32;4.03;;;19.10;99.90;;;;;;4990359;28;20038;-52
2023/09/13 02:49:57;;;;;;;9.85;4.47;;;19.10;99.90;;;;;;4994612;28;20038;-52
2023/09/13 02:52:26;;;;;;;;;;;19.10;99.90;;;;;;4991267;28;20068;-51
2023/09/13 02:54:52;;;;;;;13.95;4.22;;;19.00;99.90;;;;;;4988762;28;20059;-51
2023/09/13 02:57:18;;;;;;;12.45;3.95;;;19.00;99.90;;;;;;4988352;28;21373;-51
2023/09/13 02:59:43;;;;;;;10.32;3.72;;;19.00;99.90;;;;;;4988581;28;20493;-53
2023/09/13 03:02:09;;;;;;;;;;;19.00;99.90;;;;;;4986165;28;20038;-54
2023/09/13 03:04:34;;;;;;;13.52;4.25;;;18.90;99.90;;;;;;4982710;28;20060;-53
2023/09/13 03:07:00;;;;;;;;;;;18.90;99.90;;;;;;4987269;28;20034;-51
2023/09/13 03:09:25;;;;;;;12.23;3.42;;;18.90;99.90;;;;;;4988504;28;20400;-53
2023/09/13 03:11:51;;;;;;;;;;;18.90;99.90;;;;;;4988664;28;20041;-51
2023/09/13 03:14:16;;;;;;;13.45;3.47;;;18.90;99.90;;;;;;4988851;28;19918;-52
2023/09/13 03:16:42;;;;;;;;;;;18.90;99.90;;;;;;4988769;28;20039;-52
2023/09/13 03:19:09;;;;;;;16.17;2.75;;;18.90;99.90;;;;;;4988397;28;20343;-54
2023/09/13 03:21:34;;;;;;;9.50;3.17;;;18.90;99.90;;;;;;4988553;28;20325;-55
2023/09/13 03:24:00;;;;;;;7.60;3.15;;;18.90;99.90;;;;;;4988622;28;20034;-55
2023/09/13 03:26:26;;;;;;;11.80;3.53;;;18.90;99.90;;;;;;4986532;28;20517;-53
2023/09/13 03:28:54;;;;;;;13.63;3.60;;;18.90;99.90;;;;;;4988146;28;20026;-54
2023/09/13 03:31:22;;;;;;;8.80;3.25;;;18.90;99.90;;;;;;4988800;28;20038;-51
2023/09/13 03:33:49;;;;;;;8.48;3.63;;;18.90;99.90;;;;;;4988140;28;20520;-51
2023/09/13 03:36:15;;;;;;;8.98;3.15;;;18.90;99.90;;;;;;4986641;28;20525;-50
2023/09/13 03:38:43;;;;;;;8.55;3.90;;;18.80;99.90;;;;;;4988466;28;20129;-54
2023/09/13 03:41:11;;;;;;;8.70;4.18;;;18.80;99.90;;;;;;4988556;28;20449;-54
2023/09/13 03:43:37;;;;;;;20.50;5.05;;;18.80;99.90;;;;;;4988489;28;20041;-55
2023/09/13 03:46:03;;;;;;;;;;;18.80;99.90;;;;;;4988891;28;20041;-54
2023/09/13 03:48:33;;;;;;;10.47;3.63;;;18.80;99.90;;;;;;4988343;28;20277;-54
2023/09/13 03:50:59;;;;;;;11.00;3.90;;;18.70;99.90;;;;;;4988107;28;20525;-55
2023/09/13 03:53:25;;;;;;;11.57;3.10;;;18.70;99.90;;;;;;4988787;28;20046;-55
2023/09/13 03:55:54;;;;;;;;;;;18.70;99.90;;;;;;4991152;28;20575;-49
2023/09/13 03:58:20;;;;;;;8.35;3.55;;;18.70;99.90;;;;;;4991816;28;19930;-49
2023/09/13 04:00:46;;;;;;;9.77;3.65;;;18.70;99.90;;;;;;4992064;28;20134;-55
2023/09/13 04:03:12;;;;;;;;;;;18.70;99.90;;;;;;4989392;28;20501;-51
2023/09/13 04:05:37;;;;;;;13.02;4.40;;;18.70;99.90;;;;;;4990833;28;19924;-55
2023/09/13 04:08:03;;;;;;;;;;;18.60;99.90;;;;;;4988764;28;20034;-53
2023/09/13 04:10:29;;;;;;;9.88;4.22;;;18.60;99.90;;;;;;4991213;28;19917;-53
2023/09/13 04:12:54;;;;;;;9.25;4.05;;;18.60;99.90;;;;;;4990039;28;20153;-52
2023/09/13 04:15:20;;;;;;;7.90;4.40;;;18.50;99.90;;;;;;4989742;28;20050;-50
2023/09/13 04:17:46;;;;;;;;;;;18.50;99.90;;;;;;4991528;28;20634;-52
2023/09/13 04:20:12;;;;;;;13.60;3.95;;;18.50;99.90;;;;;;4991361;28;19972;-55
2023/09/13 04:22:37;;;;;;;13.40;3.67;;;18.50;99.90;;;;;;4990310;28;20074;-55
2023/09/13 04:25:04;;;;;;;9.70;4.70;;;18.50;99.90;;;;;;4991213;28;20034;-55
2023/09/13 04:27:30;;;;;;;10.18;4.50;;;18.50;99.90;;;;;;4990991;28;20077;-53
2023/09/13 04:29:56;;;;;;;8.43;3.80;;;18.50;99.90;;;;;;4991228;28;20080;-52
2023/09/13 04:32:21;;;;;;;;;;;18.50;99.90;;;;;;4991723;28;20556;-53
2023/09/13 04:34:47;;;;;;;8.80;4.75;;;18.40;99.90;;;;;;4989757;28;19925;-53
2023/09/13 04:37:14;;;;;;;;;;;18.40;99.90;;;;;;4991612;28;20386;-54
2023/09/13 04:39:40;;;;;;;9.18;4.55;;;18.40;99.90;;;;;;4989488;28;19934;-54
2023/09/13 04:42:06;;;;;;;9.77;4.95;;;18.30;99.90;;;;;;4990508;28;20663;-52
2023/09/13 04:44:32;;;;;;;13.13;5.75;;;18.30;99.90;;;;;;4991099;28;20516;-54
2023/09/13 04:46:59;;;;;;;8.60;5.25;;;18.30;99.90;;;;;;4991052;28;20030;-54
2023/09/13 04:49:25;;;;;;;15.73;6.18;;;18.30;99.90;;;;;;4990136;28;20529;-51
2023/09/13 04:51:52;;;;;;;14.48;5.65;;;18.30;99.90;;;;;;4990807;28;20037;-52
2023/09/13 04:54:18;;;;;;;8.55;5.47;;;18.20;99.90;;;;;;4990423;28;20049;-55
2023/09/13 04:56:43;;;;;;;13.88;5.82;;;18.20;99.90;;;;;;4990674;28;20034;-54
2023/09/13 04:59:09;;;;;;;12.82;5.90;;;18.20;99.90;;;;;;4990492;28;20034;-52
2023/09/13 05:01:35;;;;;;;;;;;18.20;99.90;;;;;;4990544;28;20034;-51
2023/09/13 05:04:00;;;;;;;19.13;6.72;;;18.10;99.90;;;;;;4988575;28;20303;-53
2023/09/13 05:06:26;;;;;;;16.77;6.57;;;18.10;99.90;;;;;;4985257;28;20096;-50
2023/09/13 05:08:52;;;;;;;;;;;18.10;99.90;;;;;;4987863;28;20111;-52
2023/09/13 05:11:23;;;;;;;13.50;6.72;;;18.10;99.90;;;;;;4990137;28;19926;-53
2023/09/13 05:13:49;;;;;;;14.50;6.22;;;18.10;99.90;;;;;;4989031;28;20520;-48
2023/09/13 05:16:19;;;;;;;13.73;6.00;;;18.00;99.90;;;;;;5005469;28;20046;-54
2023/09/13 05:18:45;;;;;;;12.48;5.57;;;18.00;99.90;;;;;;4986140;28;20210;-53
2023/09/13 05:21:11;;;;;;;11.07;6.00;;;18.00;99.90;;;;;;4987133;28;20049;-52
2023/09/13 05:23:37;;;;;;;10.82;6.70;;;18.00;99.90;;;;;;4987361;28;20544;-54
2023/09/13 05:26:02;;;;;;;13.48;6.03;;;18.00;99.90;;;;;;4990540;28;20034;-55
2023/09/13 05:28:33;;;;;;;15.70;6.70;;;17.90;99.90;;;;;;4989811;28;20460;-53
2023/09/13 05:31:03;;;;;;;11.95;6.30;;;17.90;99.90;;;;;;4986488;28;20044;-53
2023/09/13 05:33:28;;;;;;;10.48;5.30;;;17.90;99.90;;;;;;4989671;28;20269;-53
2023/09/13 05:35:54;;;;;;;10.63;5.72;;;17.90;99.90;;;;;;4989033;28;20438;-48
2023/09/13 05:38:21;;;;;;;10.30;5.60;;;17.80;99.90;;;;;;4987736;28;20042;-51
2023/09/13 05:40:46;;;;;;;14.52;6.28;;;17.80;99.90;;;;;;4989383;28;20114;-51
2023/09/13 05:43:12;;;;;;;12.60;5.05;;;17.80;99.90;;;;;;4989187;28;20122;-49
2023/09/13 05:45:39;;;;;;;9.90;5.43;;;17.80;99.90;;;;;;4989610;28;20052;-50
2023/09/13 05:48:05;;;;;;;9.63;5.00;;;17.80;99.90;;;;;;4989757;28;20046;-51
2023/09/13 05:50:30;;;;;;;11.57;5.45;;;17.70;99.90;;;;;;4988107;28;20121;-50
2023/09/13 05:52:56;;;;;;;20.08;5.53;;;17.80;99.90;;;;;;4989431;28;20050;-51
2023/09/13 05:55:22;;;;;;;10.55;4.47;;;17.80;99.90;;;;;;4988597;28;20492;-48
2023/09/13 05:57:49;;;;;;;12.18;4.38;;;17.70;99.90;;;;;;4989630;28;20035;-52
2023/09/13 06:00:15;;;;;;;14.40;4.68;;;17.70;99.90;;;;;;4987823;28;20080;-47
2023/09/13 06:02:41;;;;;;;10.82;4.47;;;17.80;99.90;;;;;;4986231;28;20475;-51
2023/09/13 06:05:09;;;;;;;17.38;5.47;;;17.80;99.90;;;;;;4987477;28;20032;-52
2023/09/13 06:07:37;;;;;;;14.63;5.90;;;17.70;99.90;;;;;;4986031;28;20524;-51
2023/09/13 06:10:06;;;;;;;15.32;6.22;;;17.70;99.90;;;;;;4988240;28;20042;-53
2023/09/13 06:12:32;;;;;;;21.15;6.15;;;17.60;99.90;;;;;;4988540;28;20409;-52
2023/09/13 06:14:59;;;;;;;10.38;3.08;;;17.60;99.90;;;;;;4987886;28;20044;-50
2023/09/13 06:17:25;;;;;;;7.22;2.30;;;17.50;99.90;;;;;;4969988;28;20537;-51
2023/09/13 06:19:51;;;;;;;;;;;17.40;99.90;;;;;;4978255;28;20046;-52
2023/09/13 06:22:17;;;;;;;8.57;1.50;;;17.30;99.90;;;;;;4982628;28;19917;-49
2023/09/13 06:24:43;;;;;;;11.05;1.60;;;17.10;99.90;;;;;;4977696;28;20042;-50
2023/09/13 06:27:12;;;;;;;7.82;1.02;;;17.00;99.90;;;;;;4985142;28;20043;-52
2023/09/13 06:29:37;;;;;;;9.38;1.13;;;16.80;99.90;;;;;;4987308;28;20038;-49
2023/09/13 06:32:03;;;;;;;4.97;1.02;;;16.70;99.90;;;;;;4987017;28;20034;-54
2023/09/13 06:34:29;;;;;;;8.20;0.52;;;16.60;99.90;;;;;;4986274;28;20060;-48
2023/09/13 06:36:55;;;;;;;8.85;1.60;;;16.50;99.90;;;;;;4987516;28;20358;-48
2023/09/13 06:39:21;;;;;;;4.82;1.38;;;16.40;99.90;;;;;;4985200;28;20050;-51
2023/09/13 06:41:47;;;;;;;4.53;1.33;;;16.40;99.90;;;;;;4984848;28;20110;-51
2023/09/13 06:44:13;;;;;;;6.28;1.08;;;16.30;99.90;;;;;;4985879;28;20027;-55
2023/09/13 06:46:41;;;;;;;6.53;1.17;;;16.20;99.90;;;;;;4985944;28;20038;-49
2023/09/13 06:49:06;;;;;;;7.10;1.20;;;16.10;99.90;;;;;;4984563;28;20030;-53
2023/09/13 06:51:32;;;;;;;7.45;1.33;;;16.00;99.90;;;;;;4984458;28;20520;-52
2023/09/13 06:53:58;;;;;;;11.50;1.48;;;15.90;99.90;;;;;;4983502;28;20050;-50
2023/09/13 06:56:23;;;;;;;6.47;1.60;;;15.80;99.90;;;;;;4984312;28;20275;-51
2023/09/13 06:58:49;;;;;;;10.38;1.38;;;15.70;99.90;;;;;;4983174;28;20037;-53
2023/09/13 07:01:15;;;;;;;2.28;0.70;;;15.70;99.90;;;;;;4980782;28;20096;-55
2023/09/13 07:03:40;;;;;;;4.50;0.85;;;15.70;99.90;;;;;;4980455;28;20139;-53
2023/09/13 07:06:06;;;;;;;2.67;0.63;;;15.70;99.90;;;;;;4982916;28;20058;-52
2023/09/13 07:08:32;;;;;;;5.18;0.95;;;15.70;99.90;;;;;;4980870;28;20216;-52
2023/09/13 07:10:57;;;;;;;3.50;0.70;;;15.70;99.90;;;;;;4983789;28;20035;-52
2023/09/13 07:13:23;;;;;;;5.00;0.77;;;15.70;99.90;;;;;;4982113;28;20045;-53
2023/09/13 07:15:49;;;;;;;3.13;0.85;;;15.70;99.90;;;;;;4985895;28;20104;-52
2023/09/13 07:18:15;;;;;;;8.07;1.27;;;15.70;99.90;;;;;;4986635;28;20958;-48
2023/09/13 07:20:41;;;;;;;5.95;0.70;;;15.70;99.90;;;;;;4986713;28;20344;-49
2023/09/13 07:23:06;;;;;;;4.05;0.90;;;15.70;99.90;;;;;;4985432;28;20038;-50
2023/09/13 07:25:32;;;;;;;2.33;0.50;;;15.60;99.90;;;;;;4986099;28;20070;-53
2023/09/13 07:27:59;;;;;;;2.50;0.55;;;15.60;99.90;;;;;;4985760;28;20128;-55
2023/09/13 07:30:25;;;;;;;2.45;0.60;;;15.70;99.90;;;;;;4990159;28;20155;-50
2023/09/13 07:32:51;;;;;;;6.30;0.88;;;15.70;99.90;;;;;;4989196;28;20066;-51
2023/09/13 07:35:17;;;;;;;3.67;0.80;;;15.70;99.90;;;;;;4987021;28;20140;-50
2023/09/13 07:37:42;;;;;;;1.98;0.50;;;15.70;99.90;;;;;;4990671;28;20069;-50
2023/09/13 07:40:10;;;;;;;3.95;0.90;;;15.70;99.90;;;;;;4991299;28;20070;-49
2023/09/13 07:42:36;;;;;;;5.07;1.10;;;15.70;99.90;;;;;;4989281;28;20512;-48
2023/09/13 07:45:02;;;;;;;2.17;1.00;;;15.70;99.90;;;;;;4985799;28;20034;-52
2023/09/13 07:47:28;;;;;;;3.70;1.02;;;15.70;99.90;;;;;;4982501;28;20045;-53
2023/09/13 07:49:55;;;;;;;5.13;0.85;;;15.80;99.90;;;;;;4987011;28;20038;-52
2023/09/13 07:52:20;;;;;;;4.03;0.88;;;15.80;99.90;;;;;;4987327;28;20050;-48
2023/09/13 07:54:46;;;;;;;7.15;0.90;;;15.90;99.90;;;;;;4992553;28;20045;-51
2023/09/13 07:57:12;;;;;;;4.18;1.15;;;15.90;99.90;;;;;;4990928;28;20050;-50
2023/09/13 07:59:38;;;;;;;3.92;0.80;;;15.90;99.90;;;;;;4985828;28;20057;-52
2023/09/13 08:02:04;;;;;;;6.22;0.98;;;15.80;99.90;;;;;;4983978;28;21936;-52
2023/09/13 08:04:29;;;;;;;;;;;15.90;99.90;;;;;;4990275;28;20046;-53
2023/09/13 08:06:55;;;;;;;8.07;1.27;;;15.90;99.90;;;;;;4983893;28;19932;-49
2023/09/13 08:09:20;;;;;;;10.23;1.73;;;15.90;99.90;;;;;;4989521;28;20049;-49
2023/09/13 08:11:47;;;;;;;6.93;1.45;;;15.90;99.90;;;;;;4987892;28;20042;-51
2023/09/13 08:14:12;;;;;;;;;;;16.00;99.90;;;;;;4991224;28;20134;-51
2023/09/13 08:16:38;;;;;;;6.32;1.67;;;16.00;99.90;;;;;;4985872;28;20004;-49
2023/09/13 08:19:04;;;;;;;5.40;1.35;;;16.00;99.90;;;;;;4988078;28;20458;-51
2023/09/13 08:21:29;;;;;;;7.10;1.70;;;16.00;99.90;;;;;;4988906;28;20088;-51
2023/09/13 08:23:55;;;;;;;7.75;1.77;;;16.10;99.90;;;;;;4987408;28;20265;-51
2023/09/13 08:26:21;;;;;;;7.25;1.50;;;16.10;99.90;;;;;;4981543;28;20034;-49
2023/09/13 08:28:46;;;;;;;5.43;1.45;;;16.10;99.90;;;;;;4986500;28;20058;-51
2023/09/13 08:31:12;;;;;;;4.70;1.98;;;16.10;99.90;;;;;;4987236;28;20050;-52
2023/09/13 08:33:37;;;;;;;5.07;1.70;;;16.20;99.90;;;;;;4987123;28;20447;-52
2023/09/13 08:36:04;;;;;;;7.75;1.55;;;16.20;99.90;;;;;;4984230;28;20042;-49
2023/09/13 08:38:30;;;;;;;8.27;2.05;;;16.20;99.90;;;;;;4987985;28;20048;-51
2023/09/13 08:40:56;;;;;;;6.63;2.25;;;16.20;99.90;;;;;;4986533;28;20120;-54
2023/09/13 08:43:22;;;;;;;9.18;1.75;;;16.20;99.90;;;;;;4989696;28;20105;-50
2023/09/13 08:45:51;;;;;;;4.90;1.17;;;16.20;99.90;;;;;;4986980;28;20568;-50
2023/09/13 08:48:18;;;;;;;6.78;1.63;;;16.20;99.90;;;;;;4987309;28;20530;-52
2023/09/13 08:50:46;;;;;;;9.23;2.10;;;16.20;99.90;;;;;;4988440;28;20401;-53
2023/09/13 08:53:12;;;;;;;6.25;1.85;;;16.30;99.90;;;;;;4988978;28;20068;-50
2023/09/13 08:55:39;;;;;;;5.82;1.42;;;16.30;99.90;;;;;;4987497;28;20440;-49
2023/09/13 08:58:04;;;;;;;8.38;1.65;;;16.30;99.90;;;;;;4985834;28;20225;-51
2023/09/13 09:00:39;;;;;;;6.13;1.75;;;16.40;99.90;;;;;;4986962;28;20038;-50
2023/09/13 09:03:07;;;;;;;4.75;1.13;;;16.30;99.90;;;;;;4987452;28;20078;-50
2023/09/13 09:05:34;;;;;;;4.95;1.65;;;16.20;99.90;;;;;;4989514;28;20095;-49
2023/09/13 09:08:02;;;;;;;6.47;1.50;;;16.20;99.90;;;;;;4985914;28;20046;-52
2023/09/13 09:10:30;;;;;;;4.70;1.50;;;16.20;99.90;;;;;;4989464;28;20247;-51
2023/09/13 09:12:59;;;;;;;6.22;1.70;;;16.20;99.90;;;;;;4984281;28;20579;-54
2023/09/13 09:15:26;;;;;;;5.28;1.45;;;16.20;99.90;;;;;;4985318;28;20497;-50
2023/09/13 09:17:55;;;;;;;4.20;1.42;;;16.20;99.90;;;;;;4984546;28;20038;-50
2023/09/13 09:20:27;;;;;;;9.23;1.60;;;16.20;99.90;;;;;;4988851;28;20076;-51
2023/09/13 09:22:57;;;;;;;5.20;1.65;;;16.30;99.90;;;;;;4987478;28;20038;-48
2023/09/13 09:25:24;;;;;;;6.18;1.95;;;16.30;99.90;;;;;;4985793;28;20038;-51
2023/09/13 09:27:50;;;;;;;5.05;1.27;;;16.40;99.90;;;;;;4985794;28;20121;-49
2023/09/13 09:30:15;;;;;;;6.25;1.90;;;16.50;99.90;;;;;;4987265;28;20900;-48
2023/09/13 09:32:43;;;;;;;4.53;1.83;;;16.60;99.90;;;;;;4989007;28;20041;-52
2023/09/13 09:35:09;;;;;;;7.50;1.88;;;16.70;99.90;;;;;;4988765;28;20608;-50
2023/09/13 09:37:36;;;;;;;6.97;2.50;;;16.90;99.90;;;;;;4989803;28;20044;-50
2023/09/13 09:40:09;;;;;;;2.58;1.25;;;17.10;99.90;;;;;;4984477;28;20417;-51
2023/09/13 09:42:37;;;;;;;4.45;1.63;;;17.50;99.90;;;;;;4989833;28;20038;-52
2023/09/13 09:45:03;;;;;;;10.02;2.03;;;17.60;99.90;;;;;;4985986;28;20047;-53
2023/09/13 09:47:29;;;;;;;9.27;2.28;;;17.80;99.90;;;;;;4971015;28;20133;-47
2023/09/13 09:49:54;;;;;;;5.97;1.67;;;18.00;99.90;;;;;;4987535;28;20133;-49
2023/09/13 09:52:20;;;;;;;6.65;1.58;;;18.00;99.90;;;;;;4986567;28;20045;-51
2023/09/13 09:54:48;;;;;;;6.07;1.95;;;18.00;99.90;;;;;;4986767;28;20362;-50
2023/09/13 09:57:22;;;;;;;7.10;2.08;;;18.00;99.90;;;;;;4985649;28;20154;-51
2023/09/13 09:59:48;;;;;;;5.57;1.55;;;18.00;99.90;;;;;;4984643;28;20038;-50
2023/09/13 10:02:14;;;;;;;7.47;2.05;;;18.10;99.90;;;;;;4986779;28;20093;-49
2023/09/13 10:04:50;;;;;;;3.85;1.52;;;18.20;99.90;;;;;;4986512;28;20122;-51
2023/09/13 10:07:16;;;;;;;9.48;1.70;;;18.20;99.90;;;;;;4984206;28;20357;-50
2023/09/13 10:09:46;;;;;;;8.57;1.77;;;18.30;99.90;;;;;;4985292;28;20599;-49
2023/09/13 10:12:13;;;;;;;10.07;1.80;;;18.40;99.90;;;;;;4987308;28;20113;-51
2023/09/13 10:14:41;;;;;;;9.90;1.60;;;18.50;99.90;;;;;;4994224;28;20042;-48
2023/09/13 10:17:09;;;;;;;10.45;1.30;;;18.50;99.90;;;;;;4985780;28;20050;-50
2023/09/13 10:19:35;;;;;;;3.08;0.73;;;18.50;99.90;;;;;;4985979;28;20057;-50
2023/09/13 10:22:02;;;;;;;4.05;1.02;;;18.30;99.90;;;;;;4985767;28;20035;-50
2023/09/13 10:24:47;;;;;;;6.82;0.95;;;18.20;99.90;;;;;;4986120;28;20041;-49
2023/09/13 10:27:14;;;;;;;6.55;1.38;;;18.10;99.90;;;;;;4988068;28;20053;-50
2023/09/13 10:29:54;;;;;;;3.22;0.65;;;18.00;99.90;;;;;;4990630;28;20250;-51
2023/09/13 10:32:22;;;;;;;7.88;1.25;;;18.00;99.90;;;;;;4991729;28;20081;-51
2023/09/13 10:35:02;;;;;;;5.28;0.98;;;18.20;99.90;;;;;;4985288;28;20116;-52
2023/09/13 10:37:32;;;;;;;4.60;1.20;;;18.40;99.90;;;;;;4987384;28;20054;-48
2023/09/13 10:40:13;;;;;;;4.82;1.13;;;18.70;99.90;;;;;;4985802;28;20101;-51
2023/09/13 10:42:40;;;;;;;5.78;1.23;;;18.90;99.90;;;;;;4984484;28;20109;-49
2023/09/13 10:45:10;;;;;;;5.28;1.42;;;19.10;99.90;;;;;;4984355;28;20049;-50
2023/09/13 10:47:37;;;;;;;6.05;1.10;;;19.20;99.90;;;;;;4986734;28;20052;-50
2023/09/13 10:50:05;;;;;;;5.72;0.93;;;19.30;99.90;;;;;;4984730;28;20795;-48
2023/09/13 10:52:32;;;;;;;9.05;1.30;;;19.40;99.90;;;;;;4984712;28;20039;-49
2023/09/13 10:55:00;;;;;;;7.75;1.52;;;19.60;99.90;;;;;;4985098;28;20138;-49
2023/09/13 10:57:26;;;;;;;2.50;0.77;;;19.70;99.90;;;;;;4984818;28;20161;-51
2023/09/13 10:59:52;;;;;;;;;;;19.90;99.90;;;;;;4981358;28;20420;-49
2023/09/13 11:02:21;;;;;;;4.60;1.33;;;20.00;99.90;;;;;;4981183;28;20389;-50
2023/09/13 11:04:47;;;;;;;4.05;1.30;;;20.00;99.90;;;;;;4983806;28;20085;-50
2023/09/13 11:07:14;;;;;;;9.05;1.60;;;20.00;99.90;;;;;;4983218;28;20050;-51
2023/09/13 11:09:40;;;;;;;5.57;0.60;;;19.90;99.90;;;;;;4982909;28;20042;-48
2023/09/13 11:12:10;;;;;;;5.93;1.17;;;19.70;99.90;;;;;;4979806;28;20046;-51
2023/09/13 11:14:36;;;;;;;4.45;1.13;;;19.60;99.90;;;;;;4981739;28;20054;-51
2023/09/13 11:17:37;;;;;;;5.57;0.90;;;19.30;99.90;;;;;;4983821;28;20035;-51
2023/09/13 11:20:36;;;;;;;5.22;0.80;;;19.00;99.90;;;;;;4981204;28;20039;-52
2023/09/13 11:23:10;;;;;;;4.25;0.60;;;18.70;99.90;;;;;;4980671;28;20531;-51
2023/09/13 11:25:49;;;;;;;4.78;1.15;;;18.50;99.90;;;;;;4981159;28;20041;-48
2023/09/13 11:28:50;;;;;;;6.68;1.45;;;18.30;99.90;;;;;;4981793;28;20050;-52
2023/09/13 11:31:21;;;;;;;4.53;1.05;;;18.10;99.90;;;;;;4866635;29;20037;-52
2023/09/13 11:33:46;;;;;;;3.67;0.77;;;18.00;99.90;;;;;;4961813;28;20050;-51
2023/09/13 11:36:20;;;;;;;3.40;0.98;;;18.00;99.90;;;;;;4982392;28;20044;-55
2023/09/13 11:38:53;;;;;;;6.68;0.70;;;18.00;99.90;;;;;;4963797;28;20054;-58
2023/09/13 11:41:19;;;;;;;4.75;0.80;;;18.00;99.90;;;;;;4981859;28;20038;-54
2023/09/13 11:43:48;;;;;;;4.90;0.77;;;17.90;99.90;;;;;;4981389;28;20039;-55
2023/09/13 11:46:17;;;;;;;2.08;0.73;;;18.00;99.90;;;;;;4978267;28;20055;-57
2023/09/13 11:48:47;;;;;;;2.13;0.70;;;18.00;99.90;;;;;;4980526;28;20117;-51
2023/09/13 11:51:20;;;;;;;3.35;1.15;;;18.10;99.90;;;;;;4981153;28;20569;-52
2023/09/13 11:53:49;;;;;;;5.82;0.75;;;18.20;99.90;;;;;;4964780;28;20086;-52
2023/09/13 11:56:34;;;;;;;4.65;1.05;;;18.20;99.90;;;;;;4964403;28;20058;-53
2023/09/13 11:59:01;;;;;;;5.32;1.20;;;18.30;99.90;;;;;;4978993;28;20497;-52
2023/09/13 12:01:29;;;;;;;7.10;1.42;;;18.30;99.90;;;;;;4982052;28;20517;-50
2023/09/13 12:03:55;;;;;;;6.57;1.35;;;18.40;99.90;;;;;;4980901;28;20059;-58
2023/09/13 12:06:21;;;;;;;5.45;1.60;;;18.50;99.90;;;;;;4981778;28;20146;-55
2023/09/13 12:08:47;;;;;;;2.40;1.05;;;18.60;99.90;;;;;;4982564;28;20357;-53
2023/09/13 12:11:13;;;;;;;4.22;1.45;;;18.70;99.90;;;;;;4982756;28;20106;-52
2023/09/13 12:13:52;;;;;;;25.90;2.90;;;18.80;99.90;;;;;;4995521;28;20218;-53
2023/09/13 12:16:18;;;;;;;14.73;1.20;;;19.00;99.90;;;;;;4984224;28;20535;-51
2023/09/13 12:18:44;;;;;;;;;;;19.20;99.90;;;;;;4982716;28;20043;-56
2023/09/13 12:21:11;;;;;;;3.35;0.60;;;19.40;99.90;;;;;;4981940;28;20451;-57
2023/09/13 12:23:40;;;;;;;18.15;1.42;;;19.60;99.90;;;;;;4984240;28;20777;-54
2023/09/13 12:26:12;;;;;;;4.32;0.90;;;19.80;99.90;;;;;;4982085;28;20112;-56
2023/09/13 12:31:24;;;;;;;7.45;1.70;;;20.10;99.90;;;;;;5091583;27;20367;-54
2023/09/13 12:33:53;;;;;;;4.97;1.00;;;20.20;99.90;;;;;;5068589;28;20048;-54
2023/09/13 12:36:19;;;;;;;7.15;1.27;;;20.20;99.90;;;;;;5041242;28;20044;-48
2023/09/13 12:38:47;;;;;;;2.28;0.90;;;20.10;99.90;;;;;;5071147;28;20186;-50
2023/09/13 12:41:17;;;;;;;4.63;1.00;;;20.10;99.90;;;;;;5066306;28;20040;-53
2023/09/13 12:43:44;;;;;;;2.90;0.90;;;20.10;99.90;;;;;;5080515;28;20044;-55
2023/09/13 12:46:16;;;;;;;8.75;1.20;;;20.00;99.90;;;;;;5071737;28;20035;-48
2023/09/13 12:48:43;;;;;;;6.57;1.20;;;19.90;99.90;;;;;;5078082;28;20028;-49
2023/09/13 12:51:09;;;;;;;4.63;1.00;;;19.90;99.90;;;;;;5066210;28;20041;-49
2023/09/13 12:53:36;;;;;;;6.35;1.17;;;19.80;99.90;;;;;;5071052;28;20028;-54